Wetterdaten: aktuell Mittwoch, 28.06.2017 21:00
Datum Zeit Temp. A. Feuchte A. Luftdruck Regen Wind Richtung Richtung Sonnenschein ET UV Solar Taupunkt Windchill Windben
28.06.2017 21:00 21,8 C 69 % 996,8 hPa 0,0 l/m 0,0 km/h (0 Bft) NW 309 0 min 0,075 mm 0,0 UV-I 12 W/m 15,9 C 21,8 C 0,0 km/h (0 Bft)
28.06.2017 20:00 23,1 C 64 % 997,1 hPa 0,0 l/m 2,5 km/h (1 Bft) W-SW 244 10 min 0,076 mm 0,0 UV-I 26 W/m 15,9 C 23,1 C 8,0 km/h (2 Bft)
28.06.2017 19:00 22,6 C 67 % 997,4 hPa 0,4 l/m 1,6 km/h (1 Bft) W-SW 247 15 min 0,076 mm 0,7 UV-I 265 W/m 16,2 C 22,6 C 8,0 km/h (2 Bft)
28.06.2017 18:00 26,2 C 54 % 997,4 hPa 0,0 l/m 1,6 km/h (1 Bft) N 360 50 min 0,330 mm 1,5 UV-I 494 W/m 16,1 C 26,2 C 6,4 km/h (2 Bft)
28.06.2017 17:00 25,9 C 57 % 998,1 hPa 0,0 l/m 3,2 km/h (1 Bft) W-SW 247 50 min 0,432 mm 2,9 UV-I 650 W/m 16,7 C 25,9 C 8,0 km/h (2 Bft)
28.06.2017 16:00 25,3 C 65 % 998,7 hPa 0,0 l/m 0,0 km/h (0 Bft) O-NO 67 25 min 0,330 mm 3,5 UV-I 373 W/m 18,2 C 25,3 C 4,8 km/h (1 Bft)
28.06.2017 15:00 23,9 C 70 % 999,3 hPa 0,0 l/m 1,6 km/h (1 Bft) W-SW 247 25 min 0,305 mm 5,0 UV-I 385 W/m 18,1 C 23,9 C 6,4 km/h (2 Bft)
28.06.2017 14:00 23,2 C 74 % 999,7 hPa 0,0 l/m 1,6 km/h (1 Bft) N 360 15 min 0,229 mm 2,9 UV-I 325 W/m 18,3 C 23,2 C 6,4 km/h (2 Bft)
28.06.2017 13:00 21,6 C 82 % 999,6 hPa 0,0 l/m 0,0 km/h (0 Bft) W-SW 247 0 min 0,051 mm 0,0 UV-I 44 W/m 18,4 C 21,6 C 3,2 km/h (1 Bft)
28.06.2017 12:00 22,2 C 79 % 1000,3 hPa 0,6 l/m 0,0 km/h (0 Bft) N 0 5 min 0,127 mm 1,7 UV-I 158 W/m 18,4 C 22,2 C 0,0 km/h (0 Bft)
28.06.2017 11:00 23,4 C 70 % 1000,4 hPa 0,0 l/m 0,0 km/h (0 Bft) S-SW 202 25 min 0,229 mm 2,8 UV-I 406 W/m 17,6 C 23,4 C 4,8 km/h (1 Bft)
28.06.2017 10:00 21,7 C 74 % 1000,6 hPa 0,0 l/m 1,6 km/h (1 Bft) O-NO 67 5 min 0,102 mm 2,4 UV-I 148 W/m 16,9 C 21,7 C 6,4 km/h (2 Bft)
28.06.2017 09:00 19,5 C 79 % 1001,3 hPa 0,0 l/m 0,0 km/h (0 Bft) O-NO 67 10 min 0,102 mm 1,6 UV-I 271 W/m 15,8 C 19,5 C 4,8 km/h (1 Bft)
28.06.2017 08:00 17,9 C 83 % 1001,7 hPa 0,0 l/m 1,6 km/h (1 Bft) O-NO 67 35 min 0,102 mm 1,0 UV-I 359 W/m 15,0 C 17,9 C 6,4 km/h (2 Bft)
28.06.2017 07:00 15,9 C 86 % 1002,1 hPa 0,0 l/m 1,6 km/h (1 Bft) O-NO 67 25 min 0,051 mm 0,0 UV-I 120 W/m 13,6 C 15,9 C 4,8 km/h (1 Bft)
28.06.2017 06:00 14,3 C 91 % 1002,8 hPa 0,0 l/m 1,6 km/h (1 Bft) O-NO 65 0 min 0,000 mm 0,0 UV-I 65 W/m 12,8 C 14,3 C 4,8 km/h (1 Bft)
28.06.2017 05:00 13,8 C 90 % 1002,9 hPa 0,0 l/m 0,0 km/h (0 Bft) N 0 0 min 0,000 mm 0,0 UV-I 5 W/m 12,2 C 13,8 C 0,0 km/h (0 Bft)
28.06.2017 04:00 14,2 C 89 % 1003,9 hPa 0,0 l/m 0,0 km/h (0 Bft) N 0 0 min 0,000 mm 0,0 UV-I 0 W/m 12,4 C 14,2 C 0,0 km/h (0 Bft)
28.06.2017 03:00 14,8 C 88 % 1004,5 hPa 0,0 l/m 0,0 km/h (0 Bft) N 0 0 min 0,000 mm 0,0 UV-I 0 W/m 12,8 C 14,8 C 0,0 km/h (0 Bft)
28.06.2017 02:00 15,6 C 86 % 1005,1 hPa 0,0 l/m 0,0 km/h (0 Bft) N 0 0 min 0,025 mm 0,0 UV-I 0 W/m 13,3 C 15,6 C 0,0 km/h (0 Bft)
28.06.2017 01:00 16,6 C 84 % 1006,0 hPa 0,0 l/m 0,0 km/h (0 Bft) N 0 0 min 0,025 mm 0,0 UV-I 0 W/m 13,9 C 16,6 C 0,0 km/h (0 Bft)
28.06.2017 00:00 17,5 C 82 % 1006,4 hPa 0,0 l/m 0,0 km/h (0 Bft) O-NO 67 0 min 0,025 mm 0,0 UV-I 0 W/m 14,4 C 17,5 C 1,6 km/h (1 Bft)
_ Min-Zeit 05:20 17:20 20:50 - 00:00 - - - - - - 05:20 05:20 00:20
Minimum _ 13,7 C 52 % 996,8 hPa - 0,0 km/h (0 Bft) - - - - - - 12,1 C 13,7 C 0,0 km/h (0 Bft)
_ Max-Zeit 17:25 05:30 00:00 11:35 18:30 - - 06:10 17:00 13:45 14:45 14:45 17:25 18:30
Maximum _ 26,6 C 91 % 1006,4 hPa 0,4 l/m 8,0 km/h
SW (2 Bft)
- - 5 min 0,432 mm 7,2 UV-I 1100 W/m 19,1 C 26,6 C 17,7 km/h
W (3 Bft)
Durchschnitt _ 20,1 C 76 % 1001,0 hPa #1,0 l/m 1,1 km/h (1 Bft) O-NO - #4:55 h #2,591 mm 2,4 UV-I 263 W/m 15,6 C 20,1 C 4,8 km/h (1 Bft)